Tropical Cyclones
[Index]
Main Index Home Page Stock Weather Photos Extreme Storms Discussion Storm News and Storm Chasing Reports Tropical Cyclones / Hurricanes / Typhoons Weather Data and Links Wild Fires / Bushfires Weather Observation Techniques Weather Picture Catalogue Tornado Pictures and Reports Stock Video Footage and DVDs for sale
Season 1972-1973 Tropical Cyclone JEAN Track Map
Season 1972-1973 Summaries: [BoM-AU] [JTWC-AU] [JTWC-SIO] [JTWC-SPAC] [JTWC-SH]
<<- Previous TC | BoM 1972-1973 Season | Next TC ->>

click for intensity scale information  Lat/long Grid: Show Hide

 Date Labels: Show Hide

Bureau of Meteorology Tropical Cyclone Data

Name: JEAN
Number: 499 / 197273_02

10 Jan 1973 01:00 UTC to 17 Jan 1973 01:00 UTC

    date/time    lat    long    hPa   cat  kts
1973-01-10 01   12.0   115.0   1005                     
1973-01-10 04   12.2   115.0   1004                     
1973-01-10 07   12.5   115.0   1003                     
1973-01-10 10   12.9   115.0   1002                     
1973-01-10 13   13.1   115.0   1002                     
1973-01-10 16   13.3   115.0   1002                     
1973-01-10 19   13.6   115.0   1001                     
1973-01-10 22   14.0   115.0   1000                     
1973-01-11 01   14.4   115.0   1000                     
1973-01-11 04   15.0   114.8    997                     
1973-01-11 07   15.6   114.6    996                     
1973-01-11 10   16.0   114.5    994    1                
1973-01-11 13   16.4   114.4    992    1                
1973-01-11 16   16.9   114.3    990    1                
1973-01-11 19   17.2   114.0    990    1                
1973-01-11 22   17.7   113.7    986    1                
1973-01-12 01   17.8   113.0    980    2                
1973-01-12 04   17.8   112.7    970    3                
1973-01-12 07   17.8   112.5    970    3                
1973-01-12 10   17.8   112.0    970    3                
1973-01-12 13   17.9   111.5    970    3                
1973-01-12 16   18.0   111.0    970    3                
1973-01-12 19   18.1   110.0    968    3                
1973-01-12 22   18.6   109.0    966    3                
1973-01-13 01   19.0   108.0    964    3                
1973-01-13 04   19.3   107.8    964    3                
1973-01-13 07   19.5   107.3    964    3                
1973-01-13 10   19.7   107.0    964    3                
1973-01-13 13   19.9   106.7    964    3                
1973-01-13 16   20.0   106.3    965    3                
1973-01-13 19   20.2   106.0    965    3                
1973-01-13 22   20.5   105.5    965    3                
1973-01-14 01   21.0   105.0    965    3                
1973-01-14 04   21.1   104.6    968    3                
1973-01-14 07   21.2   104.2    970    3                
1973-01-14 10   21.5   103.8    970    3                
1973-01-14 13   21.8   103.4    975    2                
1973-01-14 16   22.1   102.9    975    2                
1973-01-14 19   22.5   102.4    978    2                
1973-01-14 20   22.9   102.0    980    2                
1973-01-15 01   23.1   101.5    982    2                
1973-01-15 04   23.4   100.8    982    2                
1973-01-15 07   23.8   100.4    985    2                
1973-01-15 10   24.0   100.0    985    2                
1973-01-15 13   24.5   100.0    986    1                
1973-01-15 16   25.0    99.9    987    1                
1973-01-15 19   25.4    99.7    990    1                
1973-01-15 20   25.6    99.4    990    1                
1973-01-16 01   25.6    99.0    992    1                
1973-01-16 04   25.5    98.8    992    1                
1973-01-16 07   25.4    98.7    992    1                
1973-01-16 10   25.2    98.6    992    1                
1973-01-16 13   25.1    98.6    993    1                
1973-01-16 16   25.0    98.6    994    1                
1973-01-16 19   24.8    98.5    995    1                
1973-01-16 22   24.6    98.5    996                     
1973-01-17 01   24.5    98.5    997                     
Winds are 10-min average.

Tropical cyclone tracks developed by Michael Bath using data from the Bureau of Meteorology and Google Maps.


[Australian Severe Weather index] [Copyright Notice] [Email Contacts] [Search This Site] [Privacy Policy]
Document: tropical_cyclone_jean.htm Updated: 30 May 2013